createdAt,value
2022-12-31T00:02:15.329Z,99967.16
2022-12-31T00:07:18.665Z,99953.58
2022-12-31T00:12:21.767Z,99938.26
2022-12-31T00:17:24.982Z,99929.52
2022-12-31T00:22:29.416Z,99919.05
2022-12-31T00:27:33.855Z,99923.64
2022-12-31T00:32:37.263Z,99919.58
2022-12-31T00:37:40.342Z,99916.13
2022-12-31T00:42:43.576Z,99905.96
2022-12-31T00:47:47.410Z,99877.66
2022-12-31T00:52:50.605Z,99865.32
2022-12-31T00:57:53.810Z,99863.66
2022-12-31T01:02:57.246Z,99860.23
2022-12-31T01:08:01.358Z,99868.13
2022-12-31T01:13:04.773Z,99874.73
2022-12-31T01:18:09.100Z,99851.99
2022-12-31T01:23:12.309Z,99847.98
2022-12-31T01:28:15.821Z,99849.42
2022-12-31T01:33:19.440Z,99853.64
2022-12-31T01:38:22.553Z,99847.80
2022-12-31T01:43:43.267Z,99828.34
2022-12-31T01:48:51.539Z,99814.46
2022-12-31T01:53:55.313Z,99815.11
2022-12-31T01:58:59.743Z,99815.02
2022-12-31T02:04:09.204Z,99820.71
2022-12-31T02:09:13.112Z,99818.73
2022-12-31T02:14:20.680Z,99831.94
2022-12-31T02:19:55.284Z,99841.90
2022-12-31T02:25:32.693Z,99826.30
2022-12-31T02:30:37.691Z,99818.48
2022-12-31T02:35:47.303Z,99812.55
2022-12-31T02:40:52.862Z,99811.67
2022-12-31T02:46:13.425Z,99802.48
2022-12-31T02:51:41.979Z,99808.48
2022-12-31T02:57:13.260Z,99812.02
2022-12-31T03:02:20.271Z,99813.44
2022-12-31T03:07:27.269Z,99793.61
2022-12-31T03:12:48.534Z,99795.14
2022-12-31T03:18:13.600Z,99785.14
2022-12-31T03:23:21.390Z,99775.84
2022-12-31T03:28:27.933Z,99782.48
2022-12-31T03:33:34.423Z,99785.98
2022-12-31T03:38:37.519Z,99781.39
2022-12-31T03:43:40.794Z,99773.23
2022-12-31T03:48:43.795Z,99762.69
2022-12-31T03:53:47.008Z,99760.82
2022-12-31T03:58:50.523Z,99761.80
2022-12-31T04:03:53.628Z,99765.18
2022-12-31T04:08:56.836Z,99761.02
2022-12-31T04:13:59.940Z,99772.72
2022-12-31T04:19:03.260Z,99772.55
2022-12-31T04:24:07.234Z,99761.37
2022-12-31T04:29:11.309Z,99752.14
2022-12-31T04:34:15.031Z,99750.17
2022-12-31T04:39:18.442Z,99757.63
2022-12-31T04:44:22.159Z,99765.15
2022-12-31T04:49:25.467Z,99771.98
2022-12-31T04:54:28.489Z,99769.44
2022-12-31T04:59:31.677Z,99763.91
2022-12-31T05:04:34.991Z,99749.42
2022-12-31T05:09:38.103Z,99751.73
2022-12-31T05:14:41.405Z,99751.43
2022-12-31T05:19:44.610Z,99756.23
2022-12-31T05:24:47.616Z,99767.30
2022-12-31T05:29:51.127Z,99772.57
2022-12-31T05:34:55.070Z,99778.63
2022-12-31T05:39:58.680Z,99775.39
2022-12-31T05:45:05.366Z,99769.39
2022-12-31T05:50:11.502Z,99774.05
2022-12-31T05:55:14.648Z,99774.99
2022-12-31T06:00:17.855Z,99773.33
2022-12-31T06:05:25.891Z,99770.01
2022-12-31T06:10:29.597Z,99771.36
2022-12-31T06:15:33.691Z,99781.45
2022-12-31T06:20:40.210Z,99783.09
2022-12-31T06:25:46.287Z,99774.55
2022-12-31T06:30:49.840Z,99775.04
2022-12-31T06:35:57.836Z,99772.54
2022-12-31T06:41:05.337Z,99771.96
2022-12-31T06:46:11.618Z,99779.33
2022-12-31T06:51:19.629Z,99799.83
2022-12-31T06:56:33.982Z,99796.30
2022-12-31T07:01:59.087Z,99796.02
2022-12-31T07:07:32.944Z,99811.16
2022-12-31T07:13:00.938Z,99820.83
2022-12-31T07:18:12.757Z,99817.59
2022-12-31T07:23:29.174Z,99821.62
2022-12-31T07:29:01.044Z,99825.40
2022-12-31T07:34:36.618Z,99828.41
2022-12-31T07:39:52.003Z,99835.98
2022-12-31T07:45:20.139Z,99835.58
2022-12-31T07:50:25.222Z,99851.81
2022-12-31T07:55:35.127Z,99852.27
2022-12-31T08:00:41.458Z,99852.08
2022-12-31T08:06:20.593Z,99849.64
2022-12-31T08:11:37.584Z,99854.22
2022-12-31T08:16:41.632Z,99864.87
2022-12-31T08:21:50.959Z,99853.81
2022-12-31T08:27:12.700Z,99852.25
2022-12-31T08:32:34.235Z,99860.69
2022-12-31T08:37:44.493Z,99876.02
2022-12-31T08:43:03.176Z,99884.14
2022-12-31T08:48:23.945Z,99891.88
2022-12-31T08:53:30.994Z,99891.14
2022-12-31T08:59:05.638Z,99884.58
2022-12-31T09:04:41.821Z,99884.27
2022-12-31T09:10:04.689Z,99877.38
2022-12-31T09:15:34.053Z,99880.81
2022-12-31T09:20:44.237Z,99875.77
2022-12-31T09:26:15.859Z,99869.34
2022-12-31T09:31:30.028Z,99867.95
2022-12-31T09:36:44.215Z,99863.41
2022-12-31T09:41:56.415Z,99859.45
2022-12-31T09:47:17.647Z,99844.92
2022-12-31T09:52:41.743Z,99836.33
2022-12-31T09:57:56.919Z,99843.34
2022-12-31T10:03:03.100Z,99829.10
2022-12-31T10:08:21.876Z,99823.68
2022-12-31T10:13:34.397Z,99807.21
2022-12-31T10:18:37.509Z,99799.42
2022-12-31T10:24:15.937Z,99785.92
2022-12-31T10:29:22.114Z,99768.52
2022-12-31T10:34:47.749Z,99764.27
2022-12-31T10:40:09.296Z,99762.67
2022-12-31T10:45:15.831Z,99752.43
2022-12-31T10:50:28.397Z,99747.31
2022-12-31T10:56:25.720Z,99741.92
2022-12-31T11:01:33.324Z,99738.55
2022-12-31T11:06:58.112Z,99731.59
2022-12-31T11:12:35.823Z,99721.60
2022-12-31T11:17:54.182Z,99712.35
2022-12-31T11:23:03.028Z,99709.11
2022-12-31T11:28:30.808Z,99692.70
2022-12-31T11:34:02.689Z,99672.30
2022-12-31T11:39:30.794Z,99667.11
2022-12-31T11:44:46.584Z,99662.70
2022-12-31T11:50:12.110Z,99655.89
2022-12-31T11:55:41.635Z,99656.54
2022-12-31T12:00:57.161Z,99651.77
2022-12-31T12:06:01.781Z,99639.38
2022-12-31T12:11:19.181Z,99619.83
2022-12-31T12:16:24.035Z,99615.36
2022-12-31T12:21:28.283Z,99624.52
2022-12-31T12:26:37.701Z,99627.98
2022-12-31T12:31:41.978Z,99616.85
2022-12-31T12:36:48.629Z,99603.16
2022-12-31T12:42:08.674Z,99608.00
2022-12-31T12:47:17.571Z,99596.98
2022-12-31T12:52:42.959Z,99595.58
2022-12-31T12:58:18.558Z,99596.16
2022-12-31T13:04:14.646Z,99586.00
2022-12-31T13:09:23.086Z,99578.70
2022-12-31T13:14:45.140Z,99571.44
2022-12-31T13:19:55.111Z,99577.30
2022-12-31T13:25:16.641Z,99565.67
2022-12-31T13:30:23.850Z,99562.67
2022-12-31T13:35:33.418Z,99571.75
2022-12-31T13:41:02.818Z,99585.43
2022-12-31T13:46:24.796Z,99604.79
2022-12-31T13:51:42.227Z,99600.48
2022-12-31T13:56:46.747Z,99594.45
2022-12-31T14:01:58.766Z,99598.11
2022-12-31T14:07:11.390Z,99606.79
2022-12-31T14:12:57.194Z,99607.80
2022-12-31T14:18:27.846Z,99611.33
2022-12-31T14:24:26.861Z,99610.41
2022-12-31T14:29:43.794Z,99617.54
2022-12-31T14:35:15.308Z,99622.08
2022-12-31T14:40:47.453Z,99621.67
2022-12-31T14:46:30.410Z,99602.80
2022-12-31T14:51:38.521Z,99591.24
2022-12-31T14:56:45.816Z,99601.25
2022-12-31T15:01:49.552Z,99606.05
2022-12-31T15:07:17.729Z,99611.52
2022-12-31T15:12:26.894Z,99613.39
2022-12-31T15:18:02.857Z,99610.55
2022-12-31T15:23:21.325Z,99600.89
2022-12-31T15:28:35.904Z,99609.55
2022-12-31T15:33:41.918Z,99607.42
2022-12-31T15:38:49.998Z,99606.64
2022-12-31T15:44:14.414Z,99618.88
2022-12-31T15:49:20.621Z,99625.73
2022-12-31T15:54:30.719Z,99630.13
2022-12-31T15:59:34.769Z,99629.69
2022-12-31T16:04:44.513Z,99623.64
2022-12-31T16:09:58.052Z,99628.11
2022-12-31T16:15:02.728Z,99627.34
2022-12-31T16:20:27.252Z,99630.27
2022-12-31T16:25:33.826Z,99631.84
2022-12-31T16:30:38.053Z,99628.39
2022-12-31T16:35:41.674Z,99617.27
2022-12-31T16:41:15.813Z,99628.52
2022-12-31T16:46:32.259Z,99634.81
2022-12-31T16:51:38.296Z,99630.29
2022-12-31T16:56:43.249Z,99639.85
2022-12-31T17:01:47.221Z,99650.97
2022-12-31T17:06:51.298Z,99655.77
2022-12-31T17:11:57.110Z,99657.88
2022-12-31T17:17:04.894Z,99652.67
2022-12-31T17:22:31.656Z,99661.57
2022-12-31T17:27:37.935Z,99663.39
2022-12-31T17:32:43.184Z,99656.92
2022-12-31T17:37:47.412Z,99667.20
2022-12-31T17:42:50.618Z,99675.95
2022-12-31T17:47:55.986Z,99674.17
2022-12-31T17:53:10.450Z,99683.90
2022-12-31T17:58:18.276Z,99685.51
2022-12-31T18:03:22.089Z,99677.50
2022-12-31T18:08:26.222Z,99683.20
2022-12-31T18:13:30.657Z,99689.95
2022-12-31T18:18:36.113Z,99691.63
2022-12-31T18:23:46.618Z,99697.35
2022-12-31T18:28:50.829Z,99709.68
2022-12-31T18:33:56.853Z,99709.42
2022-12-31T18:39:00.212Z,99689.23
2022-12-31T18:44:03.632Z,99678.91
2022-12-31T18:49:06.730Z,99687.52
2022-12-31T18:54:12.001Z,99684.99
2022-12-31T18:59:15.364Z,99689.57
2022-12-31T19:04:27.038Z,99697.44
2022-12-31T19:09:49.143Z,99702.29
2022-12-31T19:14:56.162Z,99708.97
2022-12-31T19:20:05.727Z,99710.73
2022-12-31T19:25:18.449Z,99708.77
2022-12-31T19:30:27.697Z,99711.73
2022-12-31T19:35:31.004Z,99719.31
2022-12-31T19:40:34.251Z,99723.41
2022-12-31T19:45:37.586Z,99720.67
2022-12-31T19:50:43.447Z,99715.30
2022-12-31T19:55:46.806Z,99718.20
2022-12-31T20:00:56.881Z,99715.54
2022-12-31T20:06:08.274Z,99699.04
2022-12-31T20:11:14.888Z,99709.12
2022-12-31T20:16:21.154Z,99711.83
2022-12-31T20:21:27.048Z,99709.81
2022-12-31T20:26:30.736Z,99715.35
2022-12-31T20:31:34.352Z,99705.63
2022-12-31T20:36:39.323Z,99701.30
2022-12-31T20:41:42.613Z,99704.11
2022-12-31T20:46:46.073Z,99701.21
2022-12-31T20:51:52.181Z,99687.33
2022-12-31T20:56:55.819Z,99693.21
2022-12-31T21:07:22.593Z,99676.80
2022-12-31T21:12:44.614Z,99677.14
2022-12-31T21:17:48.603Z,99673.04
2022-12-31T21:22:52.009Z,99663.04
2022-12-31T21:27:55.213Z,99668.42
2022-12-31T21:32:58.528Z,99671.65
2022-12-31T21:38:03.755Z,99682.83
2022-12-31T21:43:07.101Z,99687.90
2022-12-31T21:48:22.100Z,99680.60
2022-12-31T21:53:33.932Z,99659.90
2022-12-31T21:59:08.750Z,99659.95
2022-12-31T22:04:35.316Z,99666.08
2022-12-31T22:09:35.329Z,99673.30
2022-12-31T22:14:38.465Z,99678.38
2022-12-31T22:20:01.093Z,99687.20
2022-12-31T22:25:05.847Z,99685.07
2022-12-31T22:30:10.758Z,99692.08
2022-12-31T22:35:14.510Z,99702.36
2022-12-31T22:40:18.236Z,99692.33
2022-12-31T22:45:24.003Z,99680.66
2022-12-31T22:50:27.728Z,99671.19
2022-12-31T22:55:33.901Z,99658.21
2022-12-31T23:00:42.021Z,99659.58
2022-12-31T23:05:51.496Z,99671.80
2022-12-31T23:11:01.388Z,99679.05
2022-12-31T23:16:24.841Z,99687.73
2022-12-31T23:21:47.196Z,99696.90
2022-12-31T23:26:51.215Z,99690.16
2022-12-31T23:31:54.752Z,99681.92
2022-12-31T23:36:58.245Z,99679.84
2022-12-31T23:42:02.377Z,99668.30
2022-12-31T23:47:06.282Z,99672.71
2022-12-31T23:52:09.613Z,99672.27
2022-12-31T23:57:12.937Z,99688.81
